Metar Aviation Weather Data LGAV Eleftherios Venizelos International

24°C Temp
14°C Dewpoint
54% Humidity
Temperature
35 KM/H
22 MPH
19 KTS
30°
North North
East

Wind Speed
Partly Cloudy
Conditions
Pressure 1017 (hPa) - 30.03 (in)
Visibility 6.2 (mi) - 10 (km)

Current Conditions
LGAV
Eleftherios Venizelos International
Metar :LGAV 271020Z 03019KT 9999 FEW020 BKN035 24/14 Q1017 NOSIG
Sun 27th May 13:20 pm

Eleftherios Venizelos International
  Metar Aviation API Data Provided by https://www.checkwx.com/ PHP scripts by weather34.com ©2018